Terminal Aerodrome Forecast
Issued by NWS

Home | Current Version | Previous Version | Graphics & Text | Print | Product List | Glossary On
Versions: 1 2 3 4 5 6 7 8 9 10 11 12 13 14 15 16 17
000
FTUS43 KMPX 221211 CCA
TAFAXN
TAF COR
KAXN 221211Z 2212/2312 03014G22KT 4SM BR OVC003
     FM221800 02015G23KT P6SM BKN010
     FM222300 36015G23KT P6SM BKN008
     FM230100 36014KT P6SM BKN010
     FM230200 36013KT P6SM BKN008
     FM230300 36011KT P6SM BKN010
     FM230700 35009KT P6SM SCT020=

USA.gov is the U.S. government's official web portal to all federal, state and local government web resources and services.